Time;durP1;ratioP1;P1;durP2;ratioP2;P2;SDS_P1;SDS_P2;PMS_P1;PMS_P2;Temp;Humidity;BMP_temperature;BMP_pressure;BME280_temperature;BME280_humidity;BME280_pressure;Samples;Min_cycle;Max_cycle;Signal;HPM_P1;HPM_P2
2023/10/08 00:00:49;;;;;;;8.82;3.35;;;16.50;99.90;;;;;;5037007;28;20112;-64
2023/10/08 00:03:17;;;;;;;7.93;2.45;;;16.50;99.90;;;;;;5036660;28;20021;-64
2023/10/08 00:05:43;;;;;;;9.23;3.00;;;16.40;99.90;;;;;;5036799;28;20099;-64
2023/10/08 00:08:09;;;;;;;5.57;3.00;;;16.40;99.90;;;;;;5037247;28;20025;-64
2023/10/08 00:10:42;;;;;;;7.25;2.97;;;16.40;99.90;;;;;;5036433;28;20035;-64
2023/10/08 00:13:09;;;;;;;7.63;3.30;;;16.50;99.90;;;;;;5037288;28;20025;-64
2023/10/08 00:15:44;;;;;;;8.18;3.17;;;16.50;99.90;;;;;;5036896;28;20025;-64
2023/10/08 00:18:12;;;;;;;5.28;2.60;;;16.40;99.90;;;;;;5037048;28;20037;-64
2023/10/08 00:20:54;;;;;;;6.80;3.17;;;16.40;99.90;;;;;;5037204;28;20029;-64
2023/10/08 00:23:21;;;;;;;7.25;2.70;;;16.40;99.90;;;;;;5036336;28;20052;-64
2023/10/08 00:25:47;;;;;;;8.93;3.83;;;16.30;99.90;;;;;;5036401;28;20022;-64
2023/10/08 00:28:13;;;;;;;7.22;2.53;;;16.30;99.90;;;;;;5036435;28;20041;-64
2023/10/08 00:30:42;;;;;;;10.38;3.65;;;16.40;99.90;;;;;;5036751;28;20044;-64
2023/10/08 00:33:09;;;;;;;7.22;3.33;;;16.40;99.90;;;;;;5036906;28;20026;-64
2023/10/08 00:35:39;;;;;;;5.90;2.78;;;16.50;99.90;;;;;;5036392;28;20025;-64
2023/10/08 00:38:07;;;;;;;7.90;2.80;;;16.60;99.90;;;;;;5036062;28;20032;-64
2023/10/08 00:40:38;;;;;;;5.47;2.70;;;16.50;99.90;;;;;;5036182;28;20025;-64
2023/10/08 00:43:09;;;;;;;7.88;3.17;;;16.50;99.90;;;;;;5036347;28;20045;-64
2023/10/08 00:45:43;;;;;;;5.93;2.92;;;16.40;99.90;;;;;;5036050;28;20025;-64
2023/10/08 00:48:16;;;;;;;6.60;3.17;;;16.40;99.90;;;;;;5036597;28;20029;-64
2023/10/08 00:50:42;;;;;;;9.88;3.08;;;16.40;99.90;;;;;;5036717;28;20193;-64
2023/10/08 00:53:23;;;;;;;8.30;3.25;;;16.40;99.90;;;;;;5036170;28;20021;-64
2023/10/08 00:55:59;;;;;;;5.13;2.87;;;16.50;99.90;;;;;;5036816;28;20057;-64
2023/10/08 00:58:26;;;;;;;5.50;2.88;;;16.70;99.90;;;;;;5035762;28;20022;-64
2023/10/08 01:00:59;;;;;;;11.48;3.05;;;16.90;99.90;;;;;;5036728;28;20029;-64
2023/10/08 01:03:26;;;;;;;7.63;3.10;;;17.10;99.90;;;;;;5036678;28;20105;-64
2023/10/08 01:05:53;;;;;;;7.43;2.83;;;17.00;99.90;;;;;;5036815;28;20022;-64
2023/10/08 01:08:22;;;;;;;5.97;2.83;;;17.00;99.90;;;;;;5036870;28;20083;-64
2023/10/08 01:10:57;;;;;;;8.32;3.03;;;17.00;99.90;;;;;;5036500;28;20029;-64
2023/10/08 01:13:22;;;;;;;4.82;2.63;;;16.90;99.90;;;;;;5036889;28;20028;-64
2023/10/08 01:15:51;;;;;;;9.43;3.60;;;16.70;99.90;;;;;;5035678;28;20029;-64
2023/10/08 01:18:29;;;;;;;8.13;2.75;;;16.60;99.90;;;;;;5035481;28;20059;-64
2023/10/08 01:20:55;;;;;;;10.93;3.03;;;16.70;99.90;;;;;;5036234;28;20029;-64
2023/10/08 01:23:22;;;;;;;5.63;3.33;;;16.90;99.90;;;;;;5035566;28;20025;-64
2023/10/08 01:25:52;;;;;;;9.65;3.58;;;17.00;99.90;;;;;;5035597;28;20013;-64
2023/10/08 01:28:31;;;;;;;9.05;2.90;;;17.00;99.90;;;;;;5036668;28;20076;-64
2023/10/08 01:31:18;;;;;;;5.85;2.78;;;16.90;99.90;;;;;;5036537;28;20025;-64
2023/10/08 01:33:56;;;;;;;8.45;2.90;;;16.90;99.90;;;;;;5036819;28;20036;-64
2023/10/08 01:36:25;;;;;;;6.63;2.95;;;16.80;99.90;;;;;;5035620;28;20027;-64
2023/10/08 01:38:51;;;;;;;6.60;2.70;;;16.80;99.90;;;;;;5036232;28;20057;-64
2023/10/08 01:41:29;;;;;;;8.15;3.47;;;16.80;99.90;;;;;;5035289;28;20030;-64
2023/10/08 01:43:55;;;;;;;9.27;3.10;;;16.90;99.90;;;;;;5036463;28;20017;-64
2023/10/08 01:46:21;;;;;;;4.22;2.78;;;16.90;99.90;;;;;;5035583;28;20116;-64
2023/10/08 01:48:53;;;;;;;5.90;2.80;;;16.90;99.90;;;;;;5035573;28;20018;-64
2023/10/08 01:51:25;;;;;;;8.15;2.88;;;16.90;99.90;;;;;;5036062;28;20033;-65
2023/10/08 01:53:58;;;;;;;6.63;3.40;;;16.90;99.90;;;;;;5036167;28;20064;-64
2023/10/08 01:56:24;;;;;;;5.82;2.90;;;17.00;99.90;;;;;;5035224;28;20022;-64
2023/10/08 01:58:49;;;;;;;7.32;3.05;;;17.10;99.90;;;;;;5035559;28;20026;-64
2023/10/08 02:01:22;;;;;;;5.18;2.50;;;17.20;99.90;;;;;;5038115;28;20025;-64
2023/10/08 02:03:48;;;;;;;7.75;3.00;;;17.10;99.90;;;;;;5040097;28;20040;-64
2023/10/08 02:06:14;;;;;;;8.40;3.10;;;17.00;99.90;;;;;;5039727;28;20038;-64
2023/10/08 02:08:39;;;;;;;7.38;2.38;;;16.90;99.90;;;;;;5039512;28;20032;-64
2023/10/08 02:11:05;;;;;;;7.30;2.85;;;16.80;99.90;;;;;;5039191;28;20051;-64
2023/10/08 02:13:31;;;;;;;6.65;2.83;;;16.80;99.90;;;;;;5039721;28;20036;-64
2023/10/08 02:15:58;;;;;;;7.32;2.85;;;16.80;99.90;;;;;;5039681;28;20033;-64
2023/10/08 02:18:25;;;;;;;4.28;2.60;;;16.60;99.90;;;;;;5039130;28;20033;-64
2023/10/08 02:20:51;;;;;;;8.07;3.05;;;16.50;99.90;;;;;;5046111;22;20046;-69
2023/10/08 02:23:18;;;;;;;6.70;3.65;;;16.40;99.90;;;;;;5019518;28;20022;-70
2023/10/08 02:25:44;;;;;;;6.55;3.05;;;16.40;99.90;;;;;;5019610;28;20086;-70
2023/10/08 02:28:15;;;;;;;7.20;2.83;;;16.40;99.90;;;;;;5019396;28;20025;-70
2023/10/08 02:30:41;;;;;;;10.50;2.85;;;16.50;99.90;;;;;;5018920;28;20025;-70
2023/10/08 02:33:14;;;;;;;4.60;2.30;;;16.50;99.90;;;;;;5018556;28;20034;-70
2023/10/08 02:35:47;;;;;;;7.68;2.28;;;16.60;99.90;;;;;;5018513;28;20026;-70
2023/10/08 02:38:16;;;;;;;6.50;2.58;;;16.60;99.90;;;;;;5018376;28;20034;-75
2023/10/08 02:40:46;;;;;;;7.85;3.35;;;16.60;99.90;;;;;;5018285;28;20030;-75
2023/10/08 02:43:15;;;;;;;8.40;2.55;;;16.50;99.90;;;;;;5019199;28;20022;-76
2023/10/08 02:45:40;;;;;;;10.38;3.22;;;16.60;99.90;;;;;;5018706;28;20025;-70
2023/10/08 02:48:13;;;;;;;6.00;2.95;;;16.70;99.90;;;;;;5019134;28;20052;-70
2023/10/08 02:50:40;;;;;;;10.13;3.05;;;16.80;99.90;;;;;;5019389;28;20056;-67
2023/10/08 02:53:10;;;;;;;8.05;2.83;;;16.80;99.90;;;;;;5018949;28;20080;-75
2023/10/08 02:55:46;;;;;;;7.80;2.40;;;16.80;99.90;;;;;;5019238;28;20080;-75
2023/10/08 02:58:14;;;;;;;5.93;2.65;;;16.90;99.90;;;;;;5019196;28;20100;-76
2023/10/08 03:00:46;;;;;;;9.32;2.83;;;16.90;99.90;;;;;;5018208;28;20030;-68
2023/10/08 03:03:15;;;;;;;7.47;2.90;;;16.90;99.90;;;;;;5018605;28;20144;-67
2023/10/08 03:05:51;;;;;;;5.47;2.78;;;16.80;99.90;;;;;;5018112;28;20037;-68
2023/10/08 03:08:24;;;;;;;10.38;3.55;;;16.80;99.90;;;;;;5017850;28;20022;-68
2023/10/08 03:10:55;;;;;;;6.90;3.15;;;16.80;99.90;;;;;;5017606;28;20061;-68
2023/10/08 03:13:26;;;;;;;8.32;3.22;;;16.60;99.90;;;;;;5016960;28;20034;-67
2023/10/08 03:18:35;;;;;;;11.40;3.88;;;16.50;99.90;;;;;;5018991;28;20026;-67
2023/10/08 03:21:04;;;;;;;9.43;2.97;;;16.50;99.90;;;;;;5017978;28;20038;-67
2023/10/08 03:23:36;;;;;;;7.03;3.05;;;16.60;99.90;;;;;;5017779;28;20113;-67
2023/10/08 03:26:55;;;;;;;10.93;3.50;;;16.50;99.90;;;;;;5018546;28;20022;-68
2023/10/08 03:28:57;;;;;;;12.02;3.85;;;16.40;99.90;;;;;;5011131;28;20122;-67
2023/10/08 03:31:43;;;;;;;6.82;3.00;;;16.20;99.90;;;;;;5018315;28;20029;-70
2023/10/08 03:34:12;;;;;;;7.75;3.15;;;16.00;99.90;;;;;;5018150;28;20088;-70
2023/10/08 03:36:44;;;;;;;10.32;3.80;;;15.90;99.90;;;;;;5017544;28;20089;-70
2023/10/08 03:39:13;;;;;;;6.93;2.75;;;15.90;99.90;;;;;;5018323;28;20025;-69
2023/10/08 03:41:40;;;;;;;7.00;2.97;;;15.70;99.90;;;;;;5017975;28;20036;-70
2023/10/08 03:44:12;;;;;;;10.73;3.20;;;15.60;99.90;;;;;;5017254;28;20024;-70
2023/10/08 03:46:42;;;;;;;9.27;3.10;;;15.60;99.90;;;;;;5018181;28;20026;-67
2023/10/08 03:49:31;;;;;;;11.05;3.20;;;15.50;99.90;;;;;;5017143;28;20022;-67
2023/10/08 03:51:57;;;;;;;6.63;2.65;;;15.50;99.90;;;;;;5018059;28;20101;-67
2023/10/08 03:54:30;;;;;;;5.78;2.97;;;15.40;99.90;;;;;;5016863;28;20055;-67
2023/10/08 03:56:56;;;;;;;9.52;2.97;;;15.40;99.90;;;;;;5017919;28;20018;-67
2023/10/08 03:59:31;;;;;;;9.52;3.78;;;15.50;99.90;;;;;;5017687;28;20103;-67
2023/10/08 04:02:32;;;;;;;6.70;2.90;;;15.50;99.90;;;;;;5017846;28;20026;-68
2023/10/08 04:04:59;;;;;;;5.75;2.95;;;15.50;99.90;;;;;;5017223;28;20033;-67
2023/10/08 04:12:59;;;;;;;7.18;2.85;;;15.60;99.90;;;;;;5017853;28;20032;-67
2023/10/08 04:15:24;;;;;;;8.77;2.90;;;15.60;99.90;;;;;;5017703;28;20030;-67
2023/10/08 04:17:50;;;;;;;7.60;3.05;;;15.60;99.90;;;;;;5016845;28;20033;-67
2023/10/08 04:23:03;;;;;;;4.50;2.58;;;15.40;99.90;;;;;;5017362;28;20043;-70
2023/10/08 04:25:31;;;;;;;11.40;3.15;;;15.30;99.90;;;;;;5017428;28;20022;-70
2023/10/08 04:28:00;;;;;;;9.65;3.22;;;15.30;99.90;;;;;;5016807;28;20057;-70
2023/10/08 04:30:32;;;;;;;7.00;3.13;;;15.30;99.90;;;;;;5016603;28;20022;-67
2023/10/08 04:33:10;;;;;;;6.63;2.95;;;15.30;99.90;;;;;;5017287;28;20021;-67
2023/10/08 04:35:47;;;;;;;6.70;3.25;;;15.30;99.90;;;;;;5016514;28;20062;-67
2023/10/08 04:38:21;;;;;;;8.90;3.65;;;15.20;99.90;;;;;;5017198;28;20038;-67
2023/10/08 04:40:48;;;;;;;8.82;2.95;;;15.20;99.90;;;;;;5017098;28;20110;-67
2023/10/08 04:43:30;;;;;;;8.88;3.22;;;15.20;99.90;;;;;;5017225;28;20014;-69
2023/10/08 04:45:57;;;;;;;8.25;2.83;;;15.20;99.90;;;;;;5017253;28;20033;-70
2023/10/08 04:48:24;;;;;;;8.82;3.38;;;15.10;99.90;;;;;;5017089;28;20026;-70
2023/10/08 04:50:58;;;;;;;8.25;3.70;;;15.00;99.90;;;;;;5017008;28;20026;-70
2023/10/08 04:53:37;;;;;;;9.45;3.08;;;15.00;99.90;;;;;;5016305;28;20030;-70
2023/10/08 04:56:16;;;;;;;11.43;3.42;;;15.00;99.90;;;;;;5017087;28;20030;-70
2023/10/08 04:58:48;;;;;;;6.78;2.95;;;15.00;99.90;;;;;;5017199;28;20028;-69
2023/10/08 05:01:18;;;;;;;7.38;2.88;;;15.20;99.90;;;;;;5017483;28;20120;-70
2023/10/08 05:06:50;;;;;;;7.90;3.25;;;15.50;99.90;;;;;;5017578;28;20033;-69
2023/10/08 05:14:38;;;;;;;14.23;3.60;;;15.30;99.90;;;;;;5017232;28;20022;-69
2023/10/08 05:17:09;;;;;;;9.13;3.15;;;15.30;99.90;;;;;;5017562;28;20018;-70
2023/10/08 05:25:10;;;;;;;9.32;3.60;;;15.50;99.90;;;;;;5017185;28;20026;-70
2023/10/08 05:30:16;;;;;;;5.82;2.78;;;15.70;99.90;;;;;;5017123;28;20034;-70
2023/10/08 05:46:39;;;;;;;8.25;3.28;;;15.50;99.90;;;;;;5020668;28;20042;-70
2023/10/08 05:51:44;;;;;;;8.65;3.22;;;15.60;99.90;;;;;;5020853;28;20034;-69
2023/10/08 05:59:52;;;;;;;7.65;3.10;;;15.80;99.90;;;;;;5020475;28;20026;-70
2023/10/08 06:08:12;;;;;;;9.95;3.33;;;16.00;99.90;;;;;;5021138;28;20026;-70
2023/10/08 06:18:29;;;;;;;8.20;2.88;;;15.60;99.90;;;;;;5019733;28;20025;-70
2023/10/08 06:20:58;;;;;;;9.38;4.00;;;15.70;99.90;;;;;;5018755;28;20026;-70
2023/10/08 06:23:25;;;;;;;8.15;2.85;;;15.70;99.90;;;;;;5019693;28;20021;-70
2023/10/08 06:26:05;;;;;;;7.25;3.35;;;15.60;99.90;;;;;;5018696;28;20045;-69
2023/10/08 06:28:34;;;;;;;7.40;3.17;;;15.60;99.90;;;;;;5019857;28;20057;-69
2023/10/08 06:31:01;;;;;;;9.52;3.30;;;15.60;99.90;;;;;;5019556;28;20044;-70
2023/10/08 06:33:35;;;;;;;9.43;3.35;;;15.40;99.90;;;;;;5018976;28;20026;-69
2023/10/08 06:36:15;;;;;;;10.75;3.25;;;15.50;99.90;;;;;;5019507;28;20028;-70
2023/10/08 06:38:48;;;;;;;6.78;3.28;;;15.60;99.90;;;;;;5019549;28;20032;-69
2023/10/08 06:43:45;;;;;;;8.43;3.00;;;15.90;99.90;;;;;;5019792;28;20057;-70
2023/10/08 06:46:13;;;;;;;10.13;3.13;;;16.10;99.90;;;;;;5018207;28;20049;-69
2023/10/08 06:48:42;;;;;;;6.97;2.58;;;16.20;99.90;;;;;;5019208;28;20029;-69
2023/10/08 06:51:12;;;;;;;8.98;3.35;;;16.20;99.90;;;;;;5019527;28;20032;-70
2023/10/08 06:53:42;;;;;;;11.10;3.60;;;16.30;99.90;;;;;;5018373;28;20057;-69
2023/10/08 06:56:11;;;;;;;7.95;3.15;;;16.40;99.90;;;;;;5019073;28;20057;-70
2023/10/08 06:58:36;;;;;;;7.65;2.88;;;16.40;99.90;;;;;;5019250;28;20028;-69
2023/10/08 07:01:05;;;;;;;5.88;2.80;;;16.30;99.90;;;;;;5018194;28;20029;-70
2023/10/08 07:03:33;;;;;;;13.10;3.28;;;16.40;99.90;;;;;;5018985;28;20018;-70
2023/10/08 07:06:16;;;;;;;8.40;3.00;;;16.40;99.90;;;;;;5018938;28;20022;-70
2023/10/08 07:08:46;;;;;;;6.10;3.42;;;16.40;99.90;;;;;;5019013;28;20040;-70
2023/10/08 07:11:13;;;;;;;9.05;3.40;;;16.40;99.90;;;;;;5018765;28;20108;-70
2023/10/08 07:13:42;;;;;;;10.20;3.28;;;16.50;99.90;;;;;;5018670;28;20026;-70
2023/10/08 07:16:11;;;;;;;10.40;3.83;;;16.50;99.90;;;;;;5018664;28;20065;-70
2023/10/08 07:18:37;;;;;;;11.45;3.55;;;16.60;99.90;;;;;;5018599;28;20026;-70
2023/10/08 07:21:04;;;;;;;6.07;2.97;;;16.60;99.90;;;;;;5018470;28;20029;-70
2023/10/08 07:23:34;;;;;;;7.13;2.92;;;16.70;99.90;;;;;;5019009;28;20045;-70
2023/10/08 07:26:10;;;;;;;21.23;4.25;;;16.70;99.90;;;;;;5017519;28;20018;-70
2023/10/08 07:28:40;;;;;;;12.60;3.85;;;16.70;99.90;;;;;;5018428;28;20021;-70
2023/10/08 07:31:15;;;;;;;5.97;3.28;;;16.80;99.90;;;;;;5018662;28;20030;-70
2023/10/08 07:33:44;;;;;;;6.70;2.97;;;16.70;99.90;;;;;;5018309;28;20112;-70
2023/10/08 07:36:14;;;;;;;7.20;3.15;;;16.70;99.90;;;;;;5017538;28;20088;-70
2023/10/08 07:38:43;;;;;;;14.23;3.85;;;16.80;99.90;;;;;;5018140;28;20049;-69
2023/10/08 07:41:14;;;;;;;7.32;3.63;;;16.70;99.90;;;;;;5018427;28;20030;-70
2023/10/08 07:43:43;;;;;;;8.35;3.30;;;16.80;99.90;;;;;;5018130;28;20022;-70
2023/10/08 07:46:10;;;;;;;5.15;3.13;;;16.90;99.90;;;;;;5018060;28;20111;-70
2023/10/08 07:48:42;;;;;;;8.65;3.10;;;16.80;99.90;;;;;;5017082;28;20028;-70
2023/10/08 07:51:07;;;;;;;9.93;4.07;;;16.90;99.90;;;;;;5017318;28;20025;-70
2023/10/08 07:53:40;;;;;;;7.72;3.15;;;16.90;99.90;;;;;;5017869;28;20022;-70
2023/10/08 07:56:06;;;;;;;13.07;3.50;;;16.90;99.90;;;;;;5017903;28;20108;-69
2023/10/08 07:58:39;;;;;;;12.60;3.88;;;16.80;99.90;;;;;;5017556;28;20053;-70
2023/10/08 08:01:13;;;;;;;7.07;3.25;;;16.80;99.90;;;;;;5017976;28;20022;-70
2023/10/08 08:03:42;;;;;;;17.55;4.15;;;16.80;99.90;;;;;;5017871;28;20097;-70
2023/10/08 08:06:09;;;;;;;8.15;3.47;;;16.80;99.90;;;;;;5017851;28;20045;-69
2023/10/08 08:08:38;;;;;;;9.05;3.30;;;16.80;99.90;;;;;;5017877;28;20045;-70
2023/10/08 08:11:17;;;;;;;10.30;3.58;;;16.80;99.90;;;;;;5017756;28;20021;-70
2023/10/08 08:13:45;;;;;;;11.90;3.78;;;16.80;99.90;;;;;;5017632;28;20026;-70
2023/10/08 08:16:18;;;;;;;9.43;3.60;;;17.10;99.90;;;;;;5017704;28;20030;-70
2023/10/08 08:18:45;;;;;;;10.75;3.80;;;17.20;99.90;;;;;;5016440;28;20025;-70
2023/10/08 08:21:15;;;;;;;13.10;4.30;;;17.20;99.90;;;;;;5040292;22;20049;-65
2023/10/08 08:23:47;;;;;;;8.50;3.53;;;17.10;99.90;;;;;;5017586;28;20026;-65
2023/10/08 08:26:26;;;;;;;9.77;3.42;;;17.10;99.90;;;;;;5016784;28;20029;-65
2023/10/08 08:29:02;;;;;;;8.00;3.78;;;17.10;99.90;;;;;;5016579;28;20025;-65
2023/10/08 08:31:31;;;;;;;10.50;3.83;;;17.30;99.90;;;;;;4997068;28;20026;-65
2023/10/08 08:34:02;;;;;;;9.80;3.92;;;17.40;99.90;;;;;;4997615;28;20030;-65
2023/10/08 08:36:29;;;;;;;16.15;5.60;;;17.40;99.90;;;;;;4997982;28;20086;-65
2023/10/08 08:38:54;;;;;;;13.90;4.45;;;17.50;99.90;;;;;;4997492;28;20030;-65
2023/10/08 08:41:22;;;;;;;11.27;4.68;;;17.50;99.90;;;;;;4997810;28;20040;-65
2023/10/08 08:43:56;;;;;;;12.13;3.95;;;17.70;99.90;;;;;;4997673;28;20046;-65
2023/10/08 08:46:28;;;;;;;10.05;4.20;;;17.70;99.90;;;;;;4996734;28;20022;-65
2023/10/08 08:48:55;;;;;;;15.82;4.10;;;17.60;99.90;;;;;;4997649;28;20026;-65
2023/10/08 08:51:23;;;;;;;6.88;3.85;;;17.70;99.90;;;;;;4997571;28;20030;-65
2023/10/08 08:53:49;;;;;;;10.13;3.78;;;17.80;99.90;;;;;;4997884;28;20030;-64
2023/10/08 08:56:15;;;;;;;14.50;4.53;;;17.90;99.90;;;;;;4997395;28;20022;-65
2023/10/08 08:58:43;;;;;;;12.88;3.88;;;17.90;99.90;;;;;;4997514;28;20031;-65
2023/10/08 09:01:13;;;;;;;12.32;3.92;;;18.00;99.90;;;;;;4996337;28;20042;-65
2023/10/08 09:03:39;;;;;;;11.35;4.20;;;18.00;99.90;;;;;;4997613;28;20046;-65
2023/10/08 09:06:05;;;;;;;11.95;4.32;;;18.00;99.90;;;;;;4997329;28;20109;-64
2023/10/08 09:08:35;;;;;;;11.50;4.53;;;18.10;99.90;;;;;;4997245;28;20081;-64
2023/10/08 09:11:01;;;;;;;10.63;4.38;;;18.10;99.90;;;;;;5000563;28;20041;-64
2023/10/08 09:13:28;;;;;;;12.18;4.95;;;18.10;99.90;;;;;;5001355;28;20046;-65
2023/10/08 09:16:03;;;;;;;11.68;4.15;;;18.00;99.90;;;;;;5001290;28;20053;-64
2023/10/08 09:18:32;;;;;;;7.97;3.72;;;18.00;99.90;;;;;;5000494;28;20018;-65
2023/10/08 09:21:10;;;;;;;10.18;4.50;;;18.00;99.90;;;;;;5001592;28;20031;-64
2023/10/08 09:23:43;;;;;;;10.60;3.72;;;18.10;99.90;;;;;;5000395;28;20053;-65
2023/10/08 09:26:13;;;;;;;11.73;4.35;;;18.10;99.90;;;;;;5001140;28;20093;-65
2023/10/08 09:28:40;;;;;;;14.35;4.25;;;18.10;99.90;;;;;;5001282;28;20049;-65
2023/10/08 09:31:11;;;;;;;11.65;4.70;;;18.20;99.90;;;;;;5001117;28;20034;-65
2023/10/08 09:33:37;;;;;;;17.65;4.85;;;18.40;99.90;;;;;;5001380;28;20037;-65
2023/10/08 09:36:05;;;;;;;9.68;4.45;;;18.50;99.90;;;;;;5000599;28;20023;-65
2023/10/08 09:38:33;;;;;;;13.57;4.68;;;18.50;99.90;;;;;;5001135;28;20033;-65
2023/10/08 09:41:02;;;;;;;9.85;4.57;;;18.60;99.90;;;;;;4999699;28;20026;-65
2023/10/08 09:43:28;;;;;;;21.17;5.63;;;18.70;99.90;;;;;;4999903;28;20125;-65
2023/10/08 09:46:00;;;;;;;13.85;5.72;;;18.60;99.90;;;;;;5000399;28;20058;-65
2023/10/08 09:48:27;;;;;;;13.38;5.07;;;18.60;99.90;;;;;;5000009;28;20026;-65
2023/10/08 09:50:55;;;;;;;9.52;4.80;;;18.70;99.90;;;;;;4999760;28;20022;-65
2023/10/08 09:53:31;;;;;;;10.25;4.28;;;18.70;99.90;;;;;;5000591;28;20030;-65
2023/10/08 09:55:57;;;;;;;10.32;4.22;;;18.60;99.90;;;;;;5000594;28;20030;-65
2023/10/08 09:58:27;;;;;;;14.00;4.35;;;18.50;99.90;;;;;;5000850;28;20045;-65
2023/10/08 10:00:57;;;;;;;13.32;4.07;;;18.70;99.90;;;;;;4999507;28;20034;-65
2023/10/08 10:03:25;;;;;;;15.13;5.82;;;18.70;99.90;;;;;;4999767;28;20026;-65
2023/10/08 10:05:51;;;;;;;14.35;5.00;;;18.60;99.90;;;;;;4999821;28;20022;-65
2023/10/08 10:08:17;;;;;;;14.98;5.25;;;18.60;99.90;;;;;;5000304;28;20023;-65
2023/10/08 10:10:49;;;;;;;12.15;4.88;;;18.50;99.90;;;;;;5000229;28;20037;-65
2023/10/08 10:13:16;;;;;;;11.38;4.43;;;18.50;99.90;;;;;;5000608;28;20026;-65
2023/10/08 10:15:44;;;;;;;17.35;4.72;;;18.50;99.90;;;;;;4999751;28;20037;-65
2023/10/08 10:18:14;;;;;;;16.45;5.38;;;18.40;99.90;;;;;;5000530;28;20050;-65
2023/10/08 10:20:45;;;;;;;15.43;5.07;;;18.30;99.90;;;;;;4998683;28;20057;-65
2023/10/08 10:23:34;;;;;;;19.52;5.68;;;18.30;99.90;;;;;;5000306;28;20018;-65
2023/10/08 10:26:02;;;;;;;11.38;5.38;;;18.40;99.90;;;;;;4998940;28;20030;-65
2023/10/08 10:28:29;;;;;;;22.05;5.88;;;18.30;99.90;;;;;;5000058;28;20042;-64
2023/10/08 10:30:56;;;;;;;13.52;4.47;;;18.20;99.90;;;;;;4998994;28;20061;-65
2023/10/08 10:33:29;;;;;;;13.15;4.70;;;18.30;99.90;;;;;;4999224;28;20038;-65
2023/10/08 10:35:55;;;;;;;15.52;5.70;;;18.20;99.90;;;;;;4999940;28;20053;-65
2023/10/08 10:38:22;;;;;;;13.55;4.60;;;18.10;99.90;;;;;;4999972;28;20030;-65
2023/10/08 10:40:57;;;;;;;11.98;3.83;;;18.10;99.90;;;;;;4999623;28;20026;-65
2023/10/08 10:43:32;;;;;;;12.07;3.20;;;17.80;99.90;;;;;;4999271;28;20026;-65
2023/10/08 10:46:24;;;;;;;4.47;2.30;;;17.60;99.90;;;;;;4998790;28;20045;-65
2023/10/08 10:48:57;;;;;;;4.93;1.83;;;17.40;99.90;;;;;;4999598;28;20030;-65
2023/10/08 10:51:23;;;;;;;2.78;1.50;;;17.20;99.90;;;;;;4998633;28;20026;-65
2023/10/08 10:54:07;;;;;;;4.90;1.67;;;17.10;99.90;;;;;;4998711;28;20030;-65
2023/10/08 10:56:42;;;;;;;3.35;1.70;;;17.00;99.90;;;;;;4998766;28;20049;-65
2023/10/08 10:59:27;;;;;;;4.88;1.52;;;16.90;99.90;;;;;;4998961;28;20034;-65
2023/10/08 11:02:05;;;;;;;4.25;1.70;;;16.80;99.90;;;;;;4999752;28;20056;-65
2023/10/08 11:04:31;;;;;;;4.25;1.40;;;16.80;99.90;;;;;;4999367;28;20022;-65
2023/10/08 11:06:58;;;;;;;2.15;1.30;;;16.70;99.90;;;;;;4999918;28;20018;-65
2023/10/08 11:09:37;;;;;;;5.38;1.52;;;16.70;99.90;;;;;;4998261;28;20076;-65
2023/10/08 11:12:14;;;;;;;2.65;1.10;;;16.80;99.90;;;;;;4999294;28;20229;-65
2023/10/08 11:14:46;;;;;;;5.97;1.05;;;16.90;99.90;;;;;;4999507;28;20029;-65
2023/10/08 11:17:12;;;;;;;;;;;16.90;99.90;;;;;;4999697;28;20022;-65
2023/10/08 11:19:38;;;;;;;2.90;1.30;;;16.90;99.90;;;;;;4998883;28;19965;-65
2023/10/08 11:22:05;;;;;;;5.82;1.25;;;16.90;99.90;;;;;;4998144;28;20027;-65
2023/10/08 11:24:33;;;;;;;2.80;1.00;;;16.90;99.90;;;;;;4999062;28;20101;-65
2023/10/08 11:27:28;;;;;;;5.70;1.10;;;16.80;99.90;;;;;;4998118;28;20026;-65
2023/10/08 11:29:58;;;;;;;6.50;2.97;;;16.90;99.90;;;;;;4999017;28;20110;-65
2023/10/08 11:32:27;;;;;;;4.18;0.82;;;17.10;99.90;;;;;;4997972;28;20076;-65
2023/10/08 11:34:59;;;;;;;4.55;1.00;;;17.10;99.90;;;;;;4998050;28;20081;-65
2023/10/08 11:37:35;;;;;;;5.40;1.02;;;17.10;99.90;;;;;;4998594;28;20033;-65
2023/10/08 11:40:09;;;;;;;3.28;1.10;;;17.00;99.90;;;;;;4998768;28;20030;-65
2023/10/08 11:45:17;;;;;;;6.68;1.27;;;17.00;99.90;;;;;;4998804;28;20105;-65
2023/10/08 11:47:48;;;;;;;2.75;0.70;;;16.90;99.90;;;;;;4998640;28;20018;-65
2023/10/08 11:50:19;;;;;;;3.13;0.82;;;16.80;99.90;;;;;;4998466;28;20034;-65
2023/10/08 11:52:45;;;;;;;5.65;0.82;;;16.70;99.90;;;;;;4998570;28;20030;-65
2023/10/08 11:55:18;;;;;;;8.25;0.82;;;16.60;99.90;;;;;;4998367;28;20085;-65
2023/10/08 11:57:48;;;;;;;6.53;1.15;;;16.60;99.90;;;;;;4997378;28;20084;-65
2023/10/08 12:00:24;;;;;;;2.72;0.82;;;16.60;99.90;;;;;;4997566;28;20053;-65
2023/10/08 12:02:54;;;;;;;6.35;0.93;;;16.50;99.90;;;;;;4998378;28;20019;-65
2023/10/08 12:05:20;;;;;;;1.65;0.70;;;16.40;99.90;;;;;;4998205;28;20025;-65
2023/10/08 12:07:57;;;;;;;3.00;0.90;;;16.40;99.90;;;;;;4997666;28;20030;-66
2023/10/08 12:10:23;;;;;;;3.85;1.10;;;16.50;99.90;;;;;;4997664;28;20026;-65
2023/10/08 12:12:52;;;;;;;2.30;0.70;;;16.60;99.90;;;;;;4997342;28;20026;-66
2023/10/08 12:15:19;;;;;;;7.65;1.13;;;16.60;99.90;;;;;;4997269;28;20030;-65
2023/10/08 12:20:34;;;;;;;4.68;1.05;;;16.60;99.90;;;;;;4997975;28;20041;-66
2023/10/08 12:23:00;;;;;;;3.88;1.20;;;16.60;99.90;;;;;;4998521;28;20015;-65
2023/10/08 12:25:26;;;;;;;4.35;1.00;;;16.60;99.90;;;;;;4996897;28;20037;-65
2023/10/08 12:27:51;;;;;;;4.00;1.23;;;16.60;99.90;;;;;;4997406;28;20023;-65
2023/10/08 12:30:17;;;;;;;6.38;1.35;;;16.50;99.90;;;;;;4997876;28;20154;-65
2023/10/08 12:32:46;;;;;;;2.05;0.75;;;16.60;99.90;;;;;;4998075;28;20030;-65
2023/10/08 12:35:14;;;;;;;3.00;0.80;;;16.60;99.90;;;;;;4997853;28;20026;-65
2023/10/08 12:37:40;;;;;;;4.40;0.93;;;16.70;99.90;;;;;;4997780;28;20022;-65
2023/10/08 12:40:22;;;;;;;5.40;0.77;;;16.70;99.90;;;;;;4996657;28;20071;-65
2023/10/08 12:42:58;;;;;;;;;;;16.60;99.90;;;;;;4997466;28;20018;-65
2023/10/08 12:45:26;;;;;;;5.80;0.90;;;16.50;99.90;;;;;;4997729;28;19906;-65
2023/10/08 12:47:53;;;;;;;4.38;1.05;;;16.50;99.90;;;;;;4996961;28;20019;-65
2023/10/08 12:50:29;;;;;;;4.97;1.23;;;16.50;99.90;;;;;;4996576;28;20023;-66
2023/10/08 12:52:55;;;;;;;5.18;1.30;;;16.60;99.90;;;;;;4997490;28;20030;-65
2023/10/08 12:55:24;;;;;;;7.28;1.50;;;16.60;99.90;;;;;;4996684;28;20033;-65
2023/10/08 12:57:55;;;;;;;2.88;0.65;;;16.70;99.90;;;;;;4996957;28;20033;-66
2023/10/08 13:00:23;;;;;;;6.05;1.40;;;16.70;99.90;;;;;;4997849;28;20026;-65
2023/10/08 13:02:53;;;;;;;3.65;1.10;;;16.70;99.90;;;;;;4997679;28;20022;-66
2023/10/08 13:05:26;;;;;;;7.68;1.52;;;16.70;99.90;;;;;;4996734;28;20117;-66
2023/10/08 13:07:54;;;;;;;5.10;1.20;;;16.40;99.90;;;;;;4997662;28;20065;-66
2023/10/08 13:10:21;;;;;;;6.32;0.95;;;16.40;99.90;;;;;;4997286;28;20045;-66
2023/10/08 13:12:47;;;;;;;4.30;1.10;;;16.40;99.90;;;;;;4996416;28;20117;-66
2023/10/08 13:15:13;;;;;;;8.80;1.00;;;16.40;99.90;;;;;;4996443;28;20057;-66
2023/10/08 13:17:42;;;;;;;3.47;0.90;;;16.40;99.90;;;;;;4997409;28;20058;-66
2023/10/08 13:20:11;;;;;;;6.10;1.20;;;16.40;99.90;;;;;;4996044;28;20050;-66
2023/10/08 13:22:37;;;;;;;5.05;1.42;;;16.40;99.90;;;;;;4996551;28;20033;-66
2023/10/08 13:25:04;;;;;;;5.43;1.15;;;16.50;99.90;;;;;;4996571;28;20022;-66
2023/10/08 13:27:30;;;;;;;3.78;1.80;;;16.50;99.90;;;;;;4997459;28;20110;-66
2023/10/08 13:29:56;;;;;;;9.35;2.00;;;16.40;99.90;;;;;;4997101;28;20079;-66
2023/10/08 13:32:21;;;;;;;3.70;1.30;;;16.40;99.90;;;;;;4996364;28;20030;-66
2023/10/08 13:34:47;;;;;;;2.13;0.80;;;16.40;99.90;;;;;;4996868;28;20026;-66
2023/10/08 13:37:15;;;;;;;4.30;0.90;;;16.50;99.90;;;;;;4997214;28;20026;-66
2023/10/08 13:39:41;;;;;;;7.63;1.48;;;16.40;99.90;;;;;;4996950;28;20022;-66
2023/10/08 13:42:06;;;;;;;4.30;0.88;;;16.40;99.90;;;;;;4996554;28;20113;-66
2023/10/08 13:44:32;;;;;;;2.00;0.63;;;16.40;99.90;;;;;;4996418;28;20025;-66
2023/10/08 13:46:59;;;;;;;4.18;1.27;;;16.50;99.90;;;;;;4996535;28;20060;-66
2023/10/08 13:49:26;;;;;;;5.30;0.85;;;16.60;99.90;;;;;;4997031;28;20019;-66
2023/10/08 13:51:58;;;;;;;3.08;0.70;;;16.70;99.90;;;;;;4997141;28;20033;-66
2023/10/08 13:54:35;;;;;;;5.13;0.75;;;16.80;99.90;;;;;;4997378;28;20014;-66
2023/10/08 13:57:01;;;;;;;6.00;0.55;;;16.90;99.90;;;;;;4999313;28;20110;-66
2023/10/08 13:59:31;;;;;;;3.78;0.70;;;16.90;99.90;;;;;;4999698;28;20050;-66
2023/10/08 14:01:56;;;;;;;3.33;0.80;;;16.90;99.90;;;;;;4999654;28;20025;-66
2023/10/08 14:04:30;;;;;;;5.55;1.20;;;17.00;99.90;;;;;;4999931;28;20022;-66
2023/10/08 14:06:58;;;;;;;3.30;0.90;;;16.80;99.90;;;;;;5000439;28;20022;-66
2023/10/08 14:09:36;;;;;;;3.13;0.70;;;16.80;99.90;;;;;;4999694;28;20019;-66
2023/10/08 14:12:03;;;;;;;3.50;0.60;;;16.80;99.90;;;;;;4999644;28;20037;-66